sensor_id;sensor_type;location;lat;lon;timestamp;P1;durP1;ratioP1;P2;durP2;ratioP2
45254;SDS011;30989;52.078;21.014;2023-11-18T00:00:19;16.75;;;8.38;;
45254;SDS011;30989;52.078;21.014;2023-11-18T00:02:45;15.68;;;8.45;;
45254;SDS011;30989;52.078;21.014;2023-11-18T00:05:11;14.30;;;8.00;;
45254;SDS011;30989;52.078;21.014;2023-11-18T00:07:37;22.02;;;9.25;;
45254;SDS011;30989;52.078;21.014;2023-11-18T00:10:03;13.50;;;7.50;;
45254;SDS011;30989;52.078;21.014;2023-11-18T00:12:30;18.13;;;8.65;;
45254;SDS011;30989;52.078;21.014;2023-11-18T00:14:55;16.42;;;8.18;;
45254;SDS011;30989;52.078;21.014;2023-11-18T00:17:21;13.57;;;7.18;;
45254;SDS011;30989;52.078;21.014;2023-11-18T00:19:47;17.15;;;7.30;;
45254;SDS011;30989;52.078;21.014;2023-11-18T00:22:13;14.55;;;7.13;;
45254;SDS011;30989;52.078;21.014;2023-11-18T00:24:38;18.90;;;8.40;;
45254;SDS011;30989;52.078;21.014;2023-11-18T00:27:04;15.45;;;7.25;;
45254;SDS011;30989;52.078;21.014;2023-11-18T00:29:32;16.33;;;8.05;;
45254;SDS011;30989;52.078;21.014;2023-11-18T00:31:58;12.30;;;6.68;;
45254;SDS011;30989;52.078;21.014;2023-11-18T00:34:24;15.85;;;7.45;;
45254;SDS011;30989;52.078;21.014;2023-11-18T00:36:50;13.18;;;6.72;;
45254;SDS011;30989;52.078;21.014;2023-11-18T00:39:17;15.23;;;8.05;;
45254;SDS011;30989;52.078;21.014;2023-11-18T00:41:43;14.38;;;7.35;;
45254;SDS011;30989;52.078;21.014;2023-11-18T00:44:08;13.32;;;7.20;;
45254;SDS011;30989;52.078;21.014;2023-11-18T00:46:34;16.85;;;8.05;;
45254;SDS011;30989;52.078;21.014;2023-11-18T00:49:02;12.30;;;6.53;;
45254;SDS011;30989;52.078;21.014;2023-11-18T00:51:28;12.60;;;6.70;;
45254;SDS011;30989;52.078;21.014;2023-11-18T00:53:54;15.48;;;7.35;;
45254;SDS011;30989;52.078;21.014;2023-11-18T00:56:22;13.35;;;6.78;;
45254;SDS011;30989;52.078;21.014;2023-11-18T00:58:48;14.57;;;6.90;;
45254;SDS011;30989;52.078;21.014;2023-11-18T01:01:13;15.82;;;7.47;;
45254;SDS011;30989;52.078;21.014;2023-11-18T01:03:45;12.23;;;6.47;;
45254;SDS011;30989;52.078;21.014;2023-11-18T01:06:11;16.02;;;7.43;;
45254;SDS011;30989;52.078;21.014;2023-11-18T01:08:37;17.67;;;8.38;;
45254;SDS011;30989;52.078;21.014;2023-11-18T01:11:03;15.13;;;7.60;;
45254;SDS011;30989;52.078;21.014;2023-11-18T01:13:29;14.30;;;6.53;;
45254;SDS011;30989;52.078;21.014;2023-11-18T01:15:56;10.02;;;5.75;;
45254;SDS011;30989;52.078;21.014;2023-11-18T01:18:22;14.35;;;6.60;;
45254;SDS011;30989;52.078;21.014;2023-11-18T01:20:48;13.15;;;6.47;;
45254;SDS011;30989;52.078;21.014;2023-11-18T01:23:14;12.32;;;5.85;;
45254;SDS011;30989;52.078;21.014;2023-11-18T01:25:40;12.00;;;6.30;;
45254;SDS011;30989;52.078;21.014;2023-11-18T01:28:05;15.07;;;7.05;;
45254;SDS011;30989;52.078;21.014;2023-11-18T01:30:31;11.70;;;6.90;;
45254;SDS011;30989;52.078;21.014;2023-11-18T01:32:58;16.20;;;7.57;;
45254;SDS011;30989;52.078;21.014;2023-11-18T01:35:27;11.88;;;6.18;;
45254;SDS011;30989;52.078;21.014;2023-11-18T01:37:53;11.55;;;5.38;;
45254;SDS011;30989;52.078;21.014;2023-11-18T01:40:23;11.57;;;6.38;;
45254;SDS011;30989;52.078;21.014;2023-11-18T01:42:49;14.57;;;6.75;;
45254;SDS011;30989;52.078;21.014;2023-11-18T01:45:15;10.13;;;5.88;;
45254;SDS011;30989;52.078;21.014;2023-11-18T01:47:44;13.73;;;6.43;;
45254;SDS011;30989;52.078;21.014;2023-11-18T01:50:13;11.68;;;5.68;;
45254;SDS011;30989;52.078;21.014;2023-11-18T01:52:40;10.82;;;5.35;;
45254;SDS011;30989;52.078;21.014;2023-11-18T01:55:06;11.20;;;6.18;;
45254;SDS011;30989;52.078;21.014;2023-11-18T01:57:33;12.57;;;6.50;;
45254;SDS011;30989;52.078;21.014;2023-11-18T01:59:59;10.50;;;5.05;;
45254;SDS011;30989;52.078;21.014;2023-11-18T02:02:38;14.27;;;6.20;;
45254;SDS011;30989;52.078;21.014;2023-11-18T02:05:05;11.80;;;6.25;;
45254;SDS011;30989;52.078;21.014;2023-11-18T02:07:32;9.98;;;5.63;;
45254;SDS011;30989;52.078;21.014;2023-11-18T02:10:01;10.25;;;5.22;;
45254;SDS011;30989;52.078;21.014;2023-11-18T02:12:36;10.20;;;5.07;;
45254;SDS011;30989;52.078;21.014;2023-11-18T02:15:08;10.13;;;5.55;;
45254;SDS011;30989;52.078;21.014;2023-11-18T02:17:37;14.55;;;6.78;;
45254;SDS011;30989;52.078;21.014;2023-11-18T02:20:04;12.52;;;6.30;;
45254;SDS011;30989;52.078;21.014;2023-11-18T02:22:45;8.65;;;5.00;;
45254;SDS011;30989;52.078;21.014;2023-11-18T02:25:15;10.23;;;5.22;;
45254;SDS011;30989;52.078;21.014;2023-11-18T02:27:41;10.50;;;5.85;;
45254;SDS011;30989;52.078;21.014;2023-11-18T02:30:08;9.80;;;5.22;;
45254;SDS011;30989;52.078;21.014;2023-11-18T02:37:56;9.55;;;4.97;;
45254;SDS011;30989;52.078;21.014;2023-11-18T02:40:28;11.18;;;6.00;;
45254;SDS011;30989;52.078;21.014;2023-11-18T02:42:58;11.73;;;6.30;;
45254;SDS011;30989;52.078;21.014;2023-11-18T02:45:25;8.95;;;5.28;;
45254;SDS011;30989;52.078;21.014;2023-11-18T02:47:52;11.70;;;5.63;;
45254;SDS011;30989;52.078;21.014;2023-11-18T02:50:23;11.55;;;5.03;;
45254;SDS011;30989;52.078;21.014;2023-11-18T02:52:49;11.13;;;5.97;;
45254;SDS011;30989;52.078;21.014;2023-11-18T02:55:15;10.80;;;5.72;;
45254;SDS011;30989;52.078;21.014;2023-11-18T02:57:40;10.40;;;5.15;;
45254;SDS011;30989;52.078;21.014;2023-11-18T03:00:06;12.00;;;5.60;;
45254;SDS011;30989;52.078;21.014;2023-11-18T03:02:43;9.73;;;5.43;;
45254;SDS011;30989;52.078;21.014;2023-11-18T03:05:09;14.23;;;6.95;;
45254;SDS011;30989;52.078;21.014;2023-11-18T03:07:46;9.88;;;4.60;;
45254;SDS011;30989;52.078;21.014;2023-11-18T03:10:18;8.93;;;5.10;;
45254;SDS011;30989;52.078;21.014;2023-11-18T03:12:47;9.52;;;4.88;;
45254;SDS011;30989;52.078;21.014;2023-11-18T03:15:13;9.05;;;5.15;;
45254;SDS011;30989;52.078;21.014;2023-11-18T03:17:40;12.00;;;6.25;;
45254;SDS011;30989;52.078;21.014;2023-11-18T03:20:06;9.50;;;4.88;;
45254;SDS011;30989;52.078;21.014;2023-11-18T03:22:33;8.60;;;5.53;;
45254;SDS011;30989;52.078;21.014;2023-11-18T03:24:59;8.60;;;4.65;;
45254;SDS011;30989;52.078;21.014;2023-11-18T03:27:25;10.32;;;5.95;;
45254;SDS011;30989;52.078;21.014;2023-11-18T03:29:50;9.23;;;5.45;;
45254;SDS011;30989;52.078;21.014;2023-11-18T03:32:16;7.85;;;4.82;;
45254;SDS011;30989;52.078;21.014;2023-11-18T03:34:41;9.98;;;5.90;;
45254;SDS011;30989;52.078;21.014;2023-11-18T03:37:08;8.80;;;4.85;;
45254;SDS011;30989;52.078;21.014;2023-11-18T03:39:34;9.25;;;5.05;;
45254;SDS011;30989;52.078;21.014;2023-11-18T03:42:00;9.63;;;5.10;;
45254;SDS011;30989;52.078;21.014;2023-11-18T03:44:25;10.18;;;4.50;;
45254;SDS011;30989;52.078;21.014;2023-11-18T03:46:51;8.68;;;5.28;;
45254;SDS011;30989;52.078;21.014;2023-11-18T03:49:18;8.18;;;4.82;;
45254;SDS011;30989;52.078;21.014;2023-11-18T03:51:45;8.80;;;4.43;;
45254;SDS011;30989;52.078;21.014;2023-11-18T03:54:11;9.40;;;4.63;;
45254;SDS011;30989;52.078;21.014;2023-11-18T03:56:38;11.70;;;6.03;;
45254;SDS011;30989;52.078;21.014;2023-11-18T03:59:03;10.55;;;5.88;;
45254;SDS011;30989;52.078;21.014;2023-11-18T04:01:29;8.77;;;4.45;;
45254;SDS011;30989;52.078;21.014;2023-11-18T04:03:55;8.90;;;4.20;;
45254;SDS011;30989;52.078;21.014;2023-11-18T04:06:21;8.18;;;4.07;;
45254;SDS011;30989;52.078;21.014;2023-11-18T04:08:48;7.28;;;3.70;;
45254;SDS011;30989;52.078;21.014;2023-11-18T04:11:15;6.50;;;4.00;;
45254;SDS011;30989;52.078;21.014;2023-11-18T04:13:41;6.72;;;4.13;;
45254;SDS011;30989;52.078;21.014;2023-11-18T04:16:10;7.40;;;3.55;;
45254;SDS011;30989;52.078;21.014;2023-11-18T04:18:38;7.53;;;3.85;;
45254;SDS011;30989;52.078;21.014;2023-11-18T04:21:08;10.23;;;5.35;;
45254;SDS011;30989;52.078;21.014;2023-11-18T04:23:37;8.95;;;4.53;;
45254;SDS011;30989;52.078;21.014;2023-11-18T04:26:04;6.80;;;3.88;;
45254;SDS011;30989;52.078;21.014;2023-11-18T04:28:30;6.63;;;4.25;;
45254;SDS011;30989;52.078;21.014;2023-11-18T04:30:56;7.85;;;3.92;;
45254;SDS011;30989;52.078;21.014;2023-11-18T04:33:22;5.72;;;3.60;;
45254;SDS011;30989;52.078;21.014;2023-11-18T04:35:50;6.28;;;3.72;;
45254;SDS011;30989;52.078;21.014;2023-11-18T04:38:16;5.35;;;3.13;;
45254;SDS011;30989;52.078;21.014;2023-11-18T04:40:42;7.80;;;4.00;;
45254;SDS011;30989;52.078;21.014;2023-11-18T04:43:10;5.82;;;3.17;;
45254;SDS011;30989;52.078;21.014;2023-11-18T04:45:37;8.27;;;3.60;;
45254;SDS011;30989;52.078;21.014;2023-11-18T04:48:03;7.20;;;3.55;;
45254;SDS011;30989;52.078;21.014;2023-11-18T04:50:29;6.28;;;3.50;;
45254;SDS011;30989;52.078;21.014;2023-11-18T04:52:58;6.57;;;3.78;;
45254;SDS011;30989;52.078;21.014;2023-11-18T04:55:24;5.90;;;2.95;;
45254;SDS011;30989;52.078;21.014;2023-11-18T04:57:51;5.78;;;3.20;;
45254;SDS011;30989;52.078;21.014;2023-11-18T05:00:20;6.00;;;2.88;;
45254;SDS011;30989;52.078;21.014;2023-11-18T05:02:47;7.50;;;3.60;;
45254;SDS011;30989;52.078;21.014;2023-11-18T05:05:13;6.05;;;3.30;;
45254;SDS011;30989;52.078;21.014;2023-11-18T05:07:42;6.80;;;3.97;;
45254;SDS011;30989;52.078;21.014;2023-11-18T05:10:08;5.32;;;2.92;;
45254;SDS011;30989;52.078;21.014;2023-11-18T05:12:35;6.90;;;3.63;;
45254;SDS011;30989;52.078;21.014;2023-11-18T05:15:01;6.05;;;3.22;;
45254;SDS011;30989;52.078;21.014;2023-11-18T05:17:29;6.82;;;3.22;;
45254;SDS011;30989;52.078;21.014;2023-11-18T05:19:55;7.65;;;3.83;;
45254;SDS011;30989;52.078;21.014;2023-11-18T05:22:20;5.22;;;2.92;;
45254;SDS011;30989;52.078;21.014;2023-11-18T05:24:46;6.68;;;3.30;;
45254;SDS011;30989;52.078;21.014;2023-11-18T05:27:13;5.93;;;2.83;;
45254;SDS011;30989;52.078;21.014;2023-11-18T05:29:39;5.47;;;2.75;;
45254;SDS011;30989;52.078;21.014;2023-11-18T05:32:07;7.57;;;3.63;;
45254;SDS011;30989;52.078;21.014;2023-11-18T05:34:33;5.72;;;3.17;;
45254;SDS011;30989;52.078;21.014;2023-11-18T05:37:00;7.40;;;3.25;;
45254;SDS011;30989;52.078;21.014;2023-11-18T05:39:26;4.93;;;2.88;;
45254;SDS011;30989;52.078;21.014;2023-11-18T05:41:53;6.50;;;3.25;;
45254;SDS011;30989;52.078;21.014;2023-11-18T05:44:21;5.40;;;2.95;;
45254;SDS011;30989;52.078;21.014;2023-11-18T05:46:56;5.88;;;3.67;;
45254;SDS011;30989;52.078;21.014;2023-11-18T05:49:22;5.03;;;2.33;;
45254;SDS011;30989;52.078;21.014;2023-11-18T05:51:49;6.63;;;3.22;;
45254;SDS011;30989;52.078;21.014;2023-11-18T05:54:15;6.10;;;3.05;;
45254;SDS011;30989;52.078;21.014;2023-11-18T05:56:41;6.93;;;2.90;;
45254;SDS011;30989;52.078;21.014;2023-11-18T05:59:06;5.35;;;2.72;;
45254;SDS011;30989;52.078;21.014;2023-11-18T06:01:33;5.20;;;2.92;;
45254;SDS011;30989;52.078;21.014;2023-11-18T06:03:59;6.75;;;3.13;;
45254;SDS011;30989;52.078;21.014;2023-11-18T06:06:25;5.63;;;2.53;;
45254;SDS011;30989;52.078;21.014;2023-11-18T06:08:52;4.90;;;2.58;;
45254;SDS011;30989;52.078;21.014;2023-11-18T06:11:18;5.10;;;2.95;;
45254;SDS011;30989;52.078;21.014;2023-11-18T06:13:45;5.43;;;3.10;;
45254;SDS011;30989;52.078;21.014;2023-11-18T06:16:12;6.03;;;3.10;;
45254;SDS011;30989;52.078;21.014;2023-11-18T06:18:42;6.43;;;3.15;;
45254;SDS011;30989;52.078;21.014;2023-11-18T06:21:13;5.10;;;2.78;;
45254;SDS011;30989;52.078;21.014;2023-11-18T06:23:40;5.38;;;2.83;;
45254;SDS011;30989;52.078;21.014;2023-11-18T06:26:06;6.00;;;3.00;;
45254;SDS011;30989;52.078;21.014;2023-11-18T06:28:31;6.28;;;3.25;;
45254;SDS011;30989;52.078;21.014;2023-11-18T06:30:59;6.28;;;2.95;;
45254;SDS011;30989;52.078;21.014;2023-11-18T06:33:25;6.97;;;3.25;;
45254;SDS011;30989;52.078;21.014;2023-11-18T06:35:53;7.50;;;3.85;;
45254;SDS011;30989;52.078;21.014;2023-11-18T06:38:19;6.15;;;2.97;;
45254;SDS011;30989;52.078;21.014;2023-11-18T06:40:45;7.45;;;3.90;;
45254;SDS011;30989;52.078;21.014;2023-11-18T06:43:11;8.15;;;4.20;;
45254;SDS011;30989;52.078;21.014;2023-11-18T06:45:41;7.18;;;3.88;;
45254;SDS011;30989;52.078;21.014;2023-11-18T06:48:08;4.80;;;3.00;;
45254;SDS011;30989;52.078;21.014;2023-11-18T06:50:34;6.32;;;2.92;;
45254;SDS011;30989;52.078;21.014;2023-11-18T06:53:00;6.38;;;2.75;;
45254;SDS011;30989;52.078;21.014;2023-11-18T06:55:26;5.05;;;3.10;;
45254;SDS011;30989;52.078;21.014;2023-11-18T06:57:52;5.30;;;2.55;;
45254;SDS011;30989;52.078;21.014;2023-11-18T07:00:19;5.30;;;2.63;;
45254;SDS011;30989;52.078;21.014;2023-11-18T07:02:47;5.20;;;2.83;;
45254;SDS011;30989;52.078;21.014;2023-11-18T07:05:13;4.55;;;2.33;;
45254;SDS011;30989;52.078;21.014;2023-11-18T07:07:40;4.57;;;2.10;;
45254;SDS011;30989;52.078;21.014;2023-11-18T07:10:08;8.05;;;4.05;;
45254;SDS011;30989;52.078;21.014;2023-11-18T07:12:37;6.20;;;3.53;;
45254;SDS011;30989;52.078;21.014;2023-11-18T07:15:03;6.00;;;2.78;;
45254;SDS011;30989;52.078;21.014;2023-11-18T07:17:30;5.85;;;2.85;;
45254;SDS011;30989;52.078;21.014;2023-11-18T07:19:55;5.20;;;2.47;;
45254;SDS011;30989;52.078;21.014;2023-11-18T07:22:21;5.70;;;2.78;;
45254;SDS011;30989;52.078;21.014;2023-11-18T07:24:47;6.45;;;2.47;;
45254;SDS011;30989;52.078;21.014;2023-11-18T07:27:12;5.45;;;2.92;;
45254;SDS011;30989;52.078;21.014;2023-11-18T07:29:38;5.15;;;2.72;;
45254;SDS011;30989;52.078;21.014;2023-11-18T07:32:04;5.18;;;2.72;;
45254;SDS011;30989;52.078;21.014;2023-11-18T07:34:31;6.30;;;2.95;;
45254;SDS011;30989;52.078;21.014;2023-11-18T07:36:58;5.97;;;3.08;;
45254;SDS011;30989;52.078;21.014;2023-11-18T07:39:24;6.47;;;3.30;;
45254;SDS011;30989;52.078;21.014;2023-11-18T07:42:01;4.93;;;2.45;;
45254;SDS011;30989;52.078;21.014;2023-11-18T07:44:27;6.85;;;2.90;;
45254;SDS011;30989;52.078;21.014;2023-11-18T07:46:53;6.25;;;3.15;;
45254;SDS011;30989;52.078;21.014;2023-11-18T07:49:19;9.88;;;3.95;;
45254;SDS011;30989;52.078;21.014;2023-11-18T07:51:46;7.30;;;3.60;;
45254;SDS011;30989;52.078;21.014;2023-11-18T07:54:11;8.65;;;3.78;;
45254;SDS011;30989;52.078;21.014;2023-11-18T07:56:37;7.15;;;2.88;;
45254;SDS011;30989;52.078;21.014;2023-11-18T07:59:03;8.02;;;3.83;;
45254;SDS011;30989;52.078;21.014;2023-11-18T08:01:28;6.35;;;3.15;;
45254;SDS011;30989;52.078;21.014;2023-11-18T08:03:55;6.30;;;3.22;;
45254;SDS011;30989;52.078;21.014;2023-11-18T08:06:21;7.45;;;3.50;;
45254;SDS011;30989;52.078;21.014;2023-11-18T08:08:46;7.20;;;3.97;;
45254;SDS011;30989;52.078;21.014;2023-11-18T08:11:13;6.72;;;3.55;;
45254;SDS011;30989;52.078;21.014;2023-11-18T08:13:39;8.38;;;3.92;;
45254;SDS011;30989;52.078;21.014;2023-11-18T08:16:05;6.20;;;3.22;;
45254;SDS011;30989;52.078;21.014;2023-11-18T08:18:33;7.00;;;3.20;;
45254;SDS011;30989;52.078;21.014;2023-11-18T08:21:00;8.00;;;3.25;;
45254;SDS011;30989;52.078;21.014;2023-11-18T08:23:27;9.60;;;5.00;;
45254;SDS011;30989;52.078;21.014;2023-11-18T08:25:56;6.63;;;3.58;;
45254;SDS011;30989;52.078;21.014;2023-11-18T08:28:22;7.78;;;3.95;;
45254;SDS011;30989;52.078;21.014;2023-11-18T08:30:50;9.30;;;4.15;;
45254;SDS011;30989;52.078;21.014;2023-11-18T08:33:18;7.50;;;3.97;;
45254;SDS011;30989;52.078;21.014;2023-11-18T08:35:45;8.90;;;4.90;;
45254;SDS011;30989;52.078;21.014;2023-11-18T08:38:11;9.48;;;5.05;;
45254;SDS011;30989;52.078;21.014;2023-11-18T08:40:37;9.45;;;4.75;;
45254;SDS011;30989;52.078;21.014;2023-11-18T08:43:03;6.95;;;3.25;;
45254;SDS011;30989;52.078;21.014;2023-11-18T08:45:32;9.48;;;4.75;;
45254;SDS011;30989;52.078;21.014;2023-11-18T08:48:00;9.25;;;5.15;;
45254;SDS011;30989;52.078;21.014;2023-11-18T08:50:27;8.70;;;4.60;;
45254;SDS011;30989;52.078;21.014;2023-11-18T08:52:53;8.95;;;4.32;;
45254;SDS011;30989;52.078;21.014;2023-11-18T08:55:26;9.02;;;4.72;;
45254;SDS011;30989;52.078;21.014;2023-11-18T08:58:13;9.18;;;4.63;;
45254;SDS011;30989;52.078;21.014;2023-11-18T09:00:51;10.27;;;5.05;;
45254;SDS011;30989;52.078;21.014;2023-11-18T09:03:18;7.35;;;4.32;;
45254;SDS011;30989;52.078;21.014;2023-11-18T09:06:02;13.02;;;5.40;;
45254;SDS011;30989;52.078;21.014;2023-11-18T09:08:32;11.35;;;4.55;;
45254;SDS011;30989;52.078;21.014;2023-11-18T09:11:06;12.13;;;4.82;;
45254;SDS011;30989;52.078;21.014;2023-11-18T09:13:36;11.15;;;5.68;;
45254;SDS011;30989;52.078;21.014;2023-11-18T09:16:03;9.02;;;4.40;;
45254;SDS011;30989;52.078;21.014;2023-11-18T09:18:33;8.07;;;4.88;;
45254;SDS011;30989;52.078;21.014;2023-11-18T09:21:02;14.52;;;5.72;;
45254;SDS011;30989;52.078;21.014;2023-11-18T09:23:30;9.38;;;4.57;;
45254;SDS011;30989;52.078;21.014;2023-11-18T09:25:57;9.05;;;4.53;;
45254;SDS011;30989;52.078;21.014;2023-11-18T09:28:24;10.07;;;5.35;;
45254;SDS011;30989;52.078;21.014;2023-11-18T09:30:50;9.35;;;4.82;;
45254;SDS011;30989;52.078;21.014;2023-11-18T09:33:21;8.80;;;4.72;;
45254;SDS011;30989;52.078;21.014;2023-11-18T09:35:51;8.20;;;5.03;;
45254;SDS011;30989;52.078;21.014;2023-11-18T09:38:21;15.88;;;6.65;;
45254;SDS011;30989;52.078;21.014;2023-11-18T09:40:47;10.88;;;5.68;;
45254;SDS011;30989;52.078;21.014;2023-11-18T09:43:14;9.85;;;5.50;;
45254;SDS011;30989;52.078;21.014;2023-11-18T09:45:43;9.32;;;4.53;;
45254;SDS011;30989;52.078;21.014;2023-11-18T09:48:10;11.23;;;4.22;;
45254;SDS011;30989;52.078;21.014;2023-11-18T09:50:43;8.77;;;4.55;;
45254;SDS011;30989;52.078;21.014;2023-11-18T09:53:12;9.63;;;4.93;;
45254;SDS011;30989;52.078;21.014;2023-11-18T09:55:52;7.35;;;4.60;;
45254;SDS011;30989;52.078;21.014;2023-11-18T09:58:25;10.73;;;5.05;;
45254;SDS011;30989;52.078;21.014;2023-11-18T10:01:00;14.55;;;6.75;;
45254;SDS011;30989;52.078;21.014;2023-11-18T10:03:28;13.73;;;5.47;;
45254;SDS011;30989;52.078;21.014;2023-11-18T10:05:54;12.18;;;5.30;;
45254;SDS011;30989;52.078;21.014;2023-11-18T10:08:21;10.98;;;5.72;;
45254;SDS011;30989;52.078;21.014;2023-11-18T10:10:51;11.75;;;5.60;;
45254;SDS011;30989;52.078;21.014;2023-11-18T10:13:29;15.20;;;6.60;;
45254;SDS011;30989;52.078;21.014;2023-11-18T10:15:56;13.10;;;6.20;;
45254;SDS011;30989;52.078;21.014;2023-11-18T10:18:22;13.60;;;6.68;;
45254;SDS011;30989;52.078;21.014;2023-11-18T10:20:49;15.50;;;6.30;;
45254;SDS011;30989;52.078;21.014;2023-11-18T10:23:19;13.05;;;5.97;;
45254;SDS011;30989;52.078;21.014;2023-11-18T10:25:46;11.20;;;6.13;;
45254;SDS011;30989;52.078;21.014;2023-11-18T10:30:56;16.20;;;7.13;;
45254;SDS011;30989;52.078;21.014;2023-11-18T10:33:32;11.90;;;6.32;;
45254;SDS011;30989;52.078;21.014;2023-11-18T10:36:01;15.38;;;6.53;;
45254;SDS011;30989;52.078;21.014;2023-11-18T10:38:32;13.88;;;6.88;;
45254;SDS011;30989;52.078;21.014;2023-11-18T10:41:04;13.18;;;6.00;;
45254;SDS011;30989;52.078;21.014;2023-11-18T10:43:30;13.25;;;6.10;;
45254;SDS011;30989;52.078;21.014;2023-11-18T10:48:45;14.98;;;7.60;;
45254;SDS011;30989;52.078;21.014;2023-11-18T10:51:16;16.10;;;7.75;;
45254;SDS011;30989;52.078;21.014;2023-11-18T10:53:46;12.85;;;6.80;;
45254;SDS011;30989;52.078;21.014;2023-11-18T10:56:19;12.20;;;6.28;;
45254;SDS011;30989;52.078;21.014;2023-11-18T10:58:51;13.10;;;6.65;;
45254;SDS011;30989;52.078;21.014;2023-11-18T11:01:30;12.00;;;5.90;;
45254;SDS011;30989;52.078;21.014;2023-11-18T11:03:57;16.02;;;6.15;;
45254;SDS011;30989;52.078;21.014;2023-11-18T11:06:24;10.65;;;5.88;;
45254;SDS011;30989;52.078;21.014;2023-11-18T11:08:51;13.45;;;6.00;;
45254;SDS011;30989;52.078;21.014;2023-11-18T11:11:21;11.43;;;6.07;;
45254;SDS011;30989;52.078;21.014;2023-11-18T11:13:52;11.68;;;6.05;;
45254;SDS011;30989;52.078;21.014;2023-11-18T11:16:23;14.55;;;6.50;;
45254;SDS011;30989;52.078;21.014;2023-11-18T11:18:58;11.50;;;6.35;;
45254;SDS011;30989;52.078;21.014;2023-11-18T11:21:33;10.35;;;5.68;;
45254;SDS011;30989;52.078;21.014;2023-11-18T11:24:17;12.85;;;5.63;;
45254;SDS011;30989;52.078;21.014;2023-11-18T11:29:57;10.82;;;5.80;;
45254;SDS011;30989;52.078;21.014;2023-11-18T11:35:35;11.80;;;5.35;;
45254;SDS011;30989;52.078;21.014;2023-11-18T11:38:04;9.98;;;5.75;;
45254;SDS011;30989;52.078;21.014;2023-11-18T11:40:37;9.98;;;5.28;;
45254;SDS011;30989;52.078;21.014;2023-11-18T11:43:04;11.98;;;6.15;;
45254;SDS011;30989;52.078;21.014;2023-11-18T11:45:34;9.25;;;4.93;;
45254;SDS011;30989;52.078;21.014;2023-11-18T11:48:01;10.55;;;6.15;;
45254;SDS011;30989;52.078;21.014;2023-11-18T11:53:26;10.32;;;5.47;;
45254;SDS011;30989;52.078;21.014;2023-11-18T11:55:58;10.82;;;5.55;;
45254;SDS011;30989;52.078;21.014;2023-11-18T11:58:35;11.95;;;5.50;;
45254;SDS011;30989;52.078;21.014;2023-11-18T12:01:14;12.63;;;6.35;;
45254;SDS011;30989;52.078;21.014;2023-11-18T12:03:40;10.55;;;5.70;;
45254;SDS011;30989;52.078;21.014;2023-11-18T12:06:08;12.98;;;6.45;;
45254;SDS011;30989;52.078;21.014;2023-11-18T12:08:35;12.00;;;5.93;;
45254;SDS011;30989;52.078;21.014;2023-11-18T12:11:01;11.60;;;6.15;;
45254;SDS011;30989;52.078;21.014;2023-11-18T12:13:27;12.70;;;5.97;;
45254;SDS011;30989;52.078;21.014;2023-11-18T12:15:57;11.73;;;5.57;;
45254;SDS011;30989;52.078;21.014;2023-11-18T12:18:23;14.10;;;6.85;;
45254;SDS011;30989;52.078;21.014;2023-11-18T12:20:52;13.48;;;7.15;;
45254;SDS011;30989;52.078;21.014;2023-11-18T12:23:21;13.25;;;6.55;;
45254;SDS011;30989;52.078;21.014;2023-11-18T12:25:50;15.77;;;6.68;;
45254;SDS011;30989;52.078;21.014;2023-11-18T12:28:20;12.05;;;6.93;;
45254;SDS011;30989;52.078;21.014;2023-11-18T12:30:53;11.73;;;6.13;;
45254;SDS011;30989;52.078;21.014;2023-11-18T12:39:20;12.52;;;6.20;;
45254;SDS011;30989;52.078;21.014;2023-11-18T12:42:06;12.85;;;6.97;;
45254;SDS011;30989;52.078;21.014;2023-11-18T12:45:00;15.60;;;7.13;;
45254;SDS011;30989;52.078;21.014;2023-11-18T12:47:49;14.77;;;6.15;;
45254;SDS011;30989;52.078;21.014;2023-11-18T12:50:19;14.63;;;6.60;;
45254;SDS011;30989;52.078;21.014;2023-11-18T12:52:51;13.05;;;7.47;;
45254;SDS011;30989;52.078;21.014;2023-11-18T12:55:17;13.65;;;7.18;;
45254;SDS011;30989;52.078;21.014;2023-11-18T12:57:47;11.82;;;6.07;;
45254;SDS011;30989;52.078;21.014;2023-11-18T13:00:15;12.25;;;6.05;;
45254;SDS011;30989;52.078;21.014;2023-11-18T13:02:44;15.02;;;7.35;;
45254;SDS011;30989;52.078;21.014;2023-11-18T13:05:09;14.95;;;6.65;;
45254;SDS011;30989;52.078;21.014;2023-11-18T13:07:35;13.65;;;7.32;;
45254;SDS011;30989;52.078;21.014;2023-11-18T13:10:02;15.13;;;7.38;;
45254;SDS011;30989;52.078;21.014;2023-11-18T13:12:29;15.30;;;7.47;;
45254;SDS011;30989;52.078;21.014;2023-11-18T13:14:55;15.85;;;8.70;;
45254;SDS011;30989;52.078;21.014;2023-11-18T13:17:21;16.25;;;8.73;;
45254;SDS011;30989;52.078;21.014;2023-11-18T13:19:47;16.63;;;8.20;;
45254;SDS011;30989;52.078;21.014;2023-11-18T13:22:16;14.43;;;7.80;;
45254;SDS011;30989;52.078;21.014;2023-11-18T13:24:44;16.48;;;7.93;;
45254;SDS011;30989;52.078;21.014;2023-11-18T13:27:13;14.48;;;7.60;;
45254;SDS011;30989;52.078;21.014;2023-11-18T13:29:43;12.07;;;6.13;;
45254;SDS011;30989;52.078;21.014;2023-11-18T13:32:10;14.55;;;7.75;;
45254;SDS011;30989;52.078;21.014;2023-11-18T13:34:37;18.80;;;7.85;;
45254;SDS011;30989;52.078;21.014;2023-11-18T13:37:07;15.45;;;7.93;;
45254;SDS011;30989;52.078;21.014;2023-11-18T13:39:33;12.98;;;6.97;;
45254;SDS011;30989;52.078;21.014;2023-11-18T13:42:17;14.68;;;6.90;;
45254;SDS011;30989;52.078;21.014;2023-11-18T13:44:45;11.63;;;6.18;;
45254;SDS011;30989;52.078;21.014;2023-11-18T13:47:11;20.58;;;11.30;;
45254;SDS011;30989;52.078;21.014;2023-11-18T13:49:37;18.23;;;9.27;;
45254;SDS011;30989;52.078;21.014;2023-11-18T13:52:07;11.48;;;6.55;;
45254;SDS011;30989;52.078;21.014;2023-11-18T13:54:36;15.43;;;7.22;;
45254;SDS011;30989;52.078;21.014;2023-11-18T13:57:02;15.75;;;8.13;;
45254;SDS011;30989;52.078;21.014;2023-11-18T13:59:29;14.50;;;7.75;;
45254;SDS011;30989;52.078;21.014;2023-11-18T14:01:55;19.23;;;8.43;;
45254;SDS011;30989;52.078;21.014;2023-11-18T14:04:24;15.68;;;7.40;;
45254;SDS011;30989;52.078;21.014;2023-11-18T14:06:53;14.77;;;7.80;;
45254;SDS011;30989;52.078;21.014;2023-11-18T14:09:22;14.52;;;7.28;;
45254;SDS011;30989;52.078;21.014;2023-11-18T14:11:54;15.80;;;8.70;;
45254;SDS011;30989;52.078;21.014;2023-11-18T14:14:22;14.95;;;7.75;;
45254;SDS011;30989;52.078;21.014;2023-11-18T14:16:48;20.65;;;9.20;;
45254;SDS011;30989;52.078;21.014;2023-11-18T14:19:14;10.75;;;6.00;;
45254;SDS011;30989;52.078;21.014;2023-11-18T14:21:40;16.67;;;7.32;;
45254;SDS011;30989;52.078;21.014;2023-11-18T14:24:08;14.00;;;6.63;;
45254;SDS011;30989;52.078;21.014;2023-11-18T14:26:35;14.13;;;6.75;;
45254;SDS011;30989;52.078;21.014;2023-11-18T14:29:01;13.63;;;6.70;;
45254;SDS011;30989;52.078;21.014;2023-11-18T14:31:27;13.25;;;6.93;;
45254;SDS011;30989;52.078;21.014;2023-11-18T14:33:54;13.88;;;6.65;;
45254;SDS011;30989;52.078;21.014;2023-11-18T14:36:23;13.75;;;5.80;;
45254;SDS011;30989;52.078;21.014;2023-11-18T14:38:50;12.43;;;6.38;;
45254;SDS011;30989;52.078;21.014;2023-11-18T14:41:16;12.23;;;6.63;;
45254;SDS011;30989;52.078;21.014;2023-11-18T14:43:42;11.15;;;5.80;;
45254;SDS011;30989;52.078;21.014;2023-11-18T14:46:13;13.10;;;5.07;;
45254;SDS011;30989;52.078;21.014;2023-11-18T14:48:38;13.88;;;7.43;;
45254;SDS011;30989;52.078;21.014;2023-11-18T14:51:05;12.05;;;6.00;;
45254;SDS011;30989;52.078;21.014;2023-11-18T14:53:32;14.63;;;6.93;;
45254;SDS011;30989;52.078;21.014;2023-11-18T14:55:59;11.25;;;6.43;;
45254;SDS011;30989;52.078;21.014;2023-11-18T14:58:25;12.95;;;6.53;;